Time;durP1;ratioP1;P1;durP2;ratioP2;P2;SDS_P1;SDS_P2;PMS_P1;PMS_P2;Temp;Humidity;BMP_temperature;BMP_pressure;BME280_temperature;BME280_humidity;BME280_pressure;Samples;Min_cycle;Max_cycle;Signal;HPM_P1;HPM_P2
2022/11/08 00:03:49;;;;;;;;;;;12.80;89.80;;;;;;5067927;28;20000;-73
2022/11/08 00:14:27;;;;;;;;;;;12.80;89.90;;;;;;5067580;28;20030;-73
2022/11/08 00:16:52;;;;;;;;;;;12.60;90.20;;;;;;5068247;28;20007;-73
2022/11/08 00:19:18;;;;;;;;;;;12.60;90.40;;;;;;5067020;28;19923;-73
2022/11/08 00:21:43;;;;;;;;;;;12.40;90.80;;;;;;5068312;28;19919;-73
2022/11/08 00:24:09;;;;;;;;;;;12.40;90.70;;;;;;5065929;28;19916;-73
2022/11/08 00:26:34;;;;;;;;;;;12.50;90.60;;;;;;5065900;28;20030;-73
2022/11/08 00:29:00;;;;;;;;;;;12.50;90.30;;;;;;5067461;28;20021;-73
2022/11/08 00:31:25;;;;;;;;;;;12.70;90.10;;;;;;5066969;28;19939;-73
2022/11/08 00:33:51;;;;;;;;;;;12.70;90.10;;;;;;5067640;28;19916;-72
2022/11/08 00:36:16;;;;;;;;;;;12.70;90.20;;;;;;5067187;28;19916;-73
2022/11/08 00:38:42;;;;;;;;;;;12.60;90.30;;;;;;5067601;28;20031;-73
2022/11/08 00:41:08;;;;;;;;;;;12.70;90.20;;;;;;5065015;28;19920;-73
2022/11/08 00:43:34;;;;;;;;;;;12.80;90.20;;;;;;5066963;28;19916;-73
2022/11/08 00:45:59;;;;;;;;;;;12.80;90.20;;;;;;5067081;28;19938;-73
2022/11/08 00:48:25;;;;;;;;;;;12.70;90.30;;;;;;5067246;28;20584;-73
2022/11/08 00:50:50;;;;;;;;;;;12.80;90.40;;;;;;5064969;28;20439;-72
2022/11/08 00:53:16;;;;;;;;;;;12.90;90.30;;;;;;5066892;28;19984;-73
2022/11/08 00:55:41;;;;;;;;;;;12.90;90.20;;;;;;5067654;28;19916;-73
2022/11/08 00:58:07;;;;;;;;;;;12.90;90.20;;;;;;5067356;28;19921;-72
2022/11/08 01:00:33;;;;;;;;;;;13.00;90.10;;;;;;5066638;28;19917;-73
2022/11/08 01:05:42;;;;;;;;;;;13.10;90.00;;;;;;5062582;28;19977;-73
2022/11/08 01:08:08;;;;;;;;;;;13.10;90.10;;;;;;5066251;28;19920;-72
2022/11/08 01:10:39;;;;;;;;;;;13.00;90.50;;;;;;5065888;28;20631;-72
2022/11/08 01:13:04;;;;;;;;;;;13.00;90.30;;;;;;5066696;28;19966;-72
2022/11/08 01:15:34;;;;;;;;;;;13.10;90.40;;;;;;5067540;28;19916;-72
2022/11/08 01:18:00;;;;;;;;;;;13.10;90.50;;;;;;5066131;28;20419;-73
2022/11/08 01:20:25;;;;;;;;;;;13.10;90.80;;;;;;5066889;28;19974;-72
2022/11/08 01:22:51;;;;;;;;;;;13.10;90.80;;;;;;5067079;28;19936;-72
2022/11/08 01:25:16;;;;;;;;;;;13.00;91.20;;;;;;5067660;28;19916;-72
2022/11/08 01:27:42;;;;;;;;;;;13.00;91.30;;;;;;5067152;28;19916;-73
2022/11/08 01:30:08;;;;;;;;;;;13.00;91.70;;;;;;5065863;28;20415;-73
2022/11/08 01:32:34;;;;;;;;;;;13.00;91.70;;;;;;5066393;28;19967;-73
2022/11/08 01:34:59;;;;;;;;;;;13.10;91.80;;;;;;5059641;28;19916;-72
2022/11/08 01:37:25;;;;;;;;;;;13.10;91.90;;;;;;5065877;28;19924;-72
2022/11/08 01:39:50;;;;;;;;;;;13.20;91.80;;;;;;5066654;28;19916;-73
2022/11/08 01:42:16;;;;;;;;;;;13.20;92.00;;;;;;5067009;28;19983;-72
2022/11/08 01:45:00;;;;;;;;;;;13.30;91.90;;;;;;5062812;28;19916;-72
2022/11/08 01:47:25;;;;;;;;;;;13.30;92.00;;;;;;5064312;28;19917;-72
2022/11/08 01:49:54;;;;;;;;;;;13.20;92.40;;;;;;5066066;28;19916;-72
2022/11/08 01:52:22;;;;;;;;;;;13.20;92.60;;;;;;5065047;28;19916;-72
2022/11/08 01:54:56;;;;;;;;;;;13.20;92.60;;;;;;5066094;28;20023;-71
2022/11/08 01:57:27;;;;;;;;;;;13.10;92.80;;;;;;5060277;28;19923;-72
2022/11/08 01:59:54;;;;;;;;;;;13.10;92.80;;;;;;5065801;28;19923;-73
2022/11/08 02:02:20;;;;;;;;;;;13.00;93.10;;;;;;5065412;28;20003;-72
2022/11/08 02:04:46;;;;;;;;;;;13.00;93.20;;;;;;5065945;28;20008;-72
2022/11/08 02:07:12;;;;;;;;;;;13.10;93.30;;;;;;5065797;28;19916;-72
2022/11/08 02:09:39;;;;;;;;;;;13.10;93.30;;;;;;5065768;28;20559;-72
2022/11/08 02:12:05;;;;;;;;;;;13.10;93.40;;;;;;5065945;28;19951;-72
2022/11/08 02:14:31;;;;;;;;;;;13.10;93.60;;;;;;5064602;28;19917;-72
2022/11/08 02:16:56;;;;;;;;;;;13.10;93.60;;;;;;5066409;28;19917;-71
2022/11/08 02:19:28;;;;;;;;;;;13.00;94.00;;;;;;5065548;28;19938;-71
2022/11/08 02:21:56;;;;;;;;;;;13.10;94.30;;;;;;5065342;28;19922;-71
2022/11/08 02:24:21;;;;;;;;;;;13.00;94.60;;;;;;5063697;28;19987;-72
2022/11/08 02:26:48;;;;;;;;;;;13.00;94.70;;;;;;5065341;28;19963;-72
2022/11/08 02:29:24;;;;;;;;;;;13.00;94.80;;;;;;5066114;28;19920;-72
2022/11/08 02:31:49;;;;;;;;;;;12.90;95.30;;;;;;5064794;28;19959;-72
2022/11/08 02:34:15;;;;;;;;;;;13.00;95.10;;;;;;5065464;28;19956;-71
2022/11/08 02:36:42;;;;;;;;;;;13.10;95.20;;;;;;5066419;28;19917;-71
2022/11/08 02:39:07;;;;;;;;;;;12.90;95.50;;;;;;5070183;28;19920;-72
2022/11/08 02:41:33;;;;;;;;;;;12.80;95.60;;;;;;5068349;28;20688;-73
2022/11/08 02:43:58;;;;;;;;;;;12.80;95.60;;;;;;5066915;28;19921;-72
2022/11/08 02:46:24;;;;;;;;;;;12.80;95.80;;;;;;5064411;28;19916;-72
2022/11/08 02:48:50;;;;;;;;;;;12.80;95.90;;;;;;5068010;28;19923;-72
2022/11/08 02:51:15;;;;;;;;;;;12.60;96.50;;;;;;5069787;28;19916;-72
2022/11/08 02:53:41;;;;;;;;;;;12.50;96.70;;;;;;5069052;28;19916;-73
2022/11/08 02:56:06;;;;;;;;;;;12.30;97.00;;;;;;5069794;28;19916;-73
2022/11/08 02:58:32;;;;;;;;;;;12.20;97.60;;;;;;5069972;28;19917;-72
2022/11/08 03:00:57;;;;;;;;;;;12.50;97.50;;;;;;5070114;28;20475;-72
2022/11/08 03:03:23;;;;;;;;;;;12.30;98.00;;;;;;5066908;28;19916;-73
2022/11/08 03:05:48;;;;;;;;;;;12.40;97.80;;;;;;5069287;28;19932;-72
2022/11/08 03:08:14;;;;;;;;;;;12.30;98.00;;;;;;5068846;28;20201;-72
2022/11/08 03:10:39;;;;;;;;;;;12.10;98.60;;;;;;5065464;28;19925;-72
2022/11/08 03:13:05;;;;;;;;;;;12.30;98.40;;;;;;5069456;28;19916;-72
2022/11/08 03:15:31;;;;;;;;;;;12.30;98.40;;;;;;5070038;28;20065;-72
2022/11/08 03:17:57;;;;;;;;;;;12.50;97.80;;;;;;5070361;28;19957;-72
2022/11/08 03:20:23;;;;;;;;;;;12.30;98.60;;;;;;5069425;28;19917;-73
2022/11/08 03:22:55;;;;;;;;;;;12.50;98.10;;;;;;5068590;28;20392;-73
2022/11/08 03:25:20;;;;;;;;;;;12.60;98.10;;;;;;5070005;28;19916;-73
2022/11/08 03:27:46;;;;;;;;;;;12.80;97.60;;;;;;5067902;28;19978;-72
2022/11/08 03:30:12;;;;;;;;;;;12.60;98.20;;;;;;5069037;28;19927;-72
2022/11/08 03:32:37;;;;;;;;;;;12.60;98.20;;;;;;5067037;28;20019;-72
2022/11/08 03:35:03;;;;;;;;;;;12.50;98.50;;;;;;5069061;28;20391;-73
2022/11/08 03:37:28;;;;;;;;;;;12.40;98.90;;;;;;5068766;28;19923;-73
2022/11/08 03:39:54;;;;;;;;;;;12.30;99.10;;;;;;5069040;28;19916;-71
2022/11/08 03:42:20;;;;;;;;;;;12.50;99.10;;;;;;5068600;28;19917;-72
2022/11/08 03:44:45;;;;;;;;;;;12.50;98.90;;;;;;5065925;28;19955;-73
2022/11/08 03:47:11;;;;;;;;;;;12.50;99.00;;;;;;5067179;28;19999;-73
2022/11/08 03:49:36;;;;;;;;;;;12.50;99.10;;;;;;5068322;28;19939;-72
2022/11/08 03:52:02;;;;;;;;;;;12.50;98.90;;;;;;5067952;28;19916;-72
2022/11/08 03:54:27;;;;;;;;;;;12.40;99.50;;;;;;5068269;28;19917;-73
2022/11/08 03:56:53;;;;;;;;;;;12.30;99.90;;;;;;5068751;28;19999;-72
2022/11/08 03:59:18;;;;;;;;;;;12.50;99.60;;;;;;5061861;28;19920;-72
2022/11/08 04:01:44;;;;;;;;;;;12.30;99.90;;;;;;5068450;28;19916;-73
2022/11/08 04:04:09;;;;;;;;;;;12.20;99.90;;;;;;5068021;28;19917;-71
2022/11/08 04:06:35;;;;;;;;;;;12.10;99.90;;;;;;5068012;28;19926;-72
2022/11/08 04:09:00;;;;;;;;;;;12.10;99.90;;;;;;5068456;28;19930;-72
2022/11/08 04:16:54;;;;;;;;;;;12.20;99.90;;;;;;5068673;28;20382;-72
2022/11/08 04:22:06;;;;;;;;;;;12.30;99.90;;;;;;5068225;28;20588;-72
2022/11/08 04:24:31;;;;;;;;;;;12.20;99.90;;;;;;5068527;28;19974;-72
2022/11/08 04:26:57;;;;;;;;;;;12.00;99.90;;;;;;5068944;28;19916;-71
2022/11/08 04:29:22;;;;;;;;;;;12.20;99.90;;;;;;5066143;28;19920;-72
2022/11/08 04:31:48;;;;;;;;;;;12.30;99.90;;;;;;5062199;28;19971;-72
2022/11/08 04:34:13;;;;;;;;;;;12.10;99.90;;;;;;5066748;28;20016;-72
2022/11/08 04:36:39;;;;;;;;;;;12.10;99.90;;;;;;5068278;28;19917;-72
2022/11/08 04:39:04;;;;;;;;;;;12.30;99.90;;;;;;5066229;28;19916;-71
2022/11/08 04:41:30;;;;;;;;;;;12.40;99.90;;;;;;5065605;28;20039;-71
2022/11/08 04:43:56;;;;;;;;;;;12.40;99.90;;;;;;5065906;28;19944;-73
2022/11/08 04:46:22;;;;;;;;;;;12.50;99.90;;;;;;5064478;28;19916;-72
2022/11/08 04:48:52;;;;;;;;;;;12.40;99.90;;;;;;5066563;28;19951;-73
2022/11/08 04:51:19;;;;;;;;;;;12.40;99.90;;;;;;5067221;28;19950;-72
2022/11/08 04:53:45;;;;;;;;;;;12.50;99.90;;;;;;5066830;28;19921;-72
2022/11/08 04:56:15;;;;;;;;;;;12.50;99.90;;;;;;5068171;28;19916;-72
2022/11/08 04:58:42;;;;;;;;;;;12.40;99.90;;;;;;5066779;28;19923;-72
2022/11/08 05:01:09;;;;;;;;;;;12.60;99.90;;;;;;5062888;28;19927;-72
2022/11/08 05:03:34;;;;;;;;;;;12.50;99.90;;;;;;5067941;28;19944;-72
2022/11/08 05:06:01;;;;;;;;;;;12.50;99.90;;;;;;5063234;28;20005;-72
2022/11/08 05:08:26;;;;;;;;;;;12.40;99.90;;;;;;5064048;28;19958;-73
2022/11/08 05:10:58;;;;;;;;;;;12.40;99.90;;;;;;5065553;28;19975;-72
2022/11/08 05:13:23;;;;;;;;;;;12.40;99.90;;;;;;5066169;28;20409;-72
2022/11/08 05:15:49;;;;;;;;;;;12.50;99.90;;;;;;5067167;28;19917;-73
2022/11/08 05:18:14;;;;;;;;;;;12.50;99.90;;;;;;5064158;28;20378;-72
2022/11/08 05:23:24;;;;;;;;;;;12.30;99.90;;;;;;5067082;28;19963;-72
2022/11/08 05:25:53;;;;;;;;;;;12.10;99.90;;;;;;5063256;28;19944;-72
2022/11/08 05:28:19;;;;;;;;;;;11.80;99.90;;;;;;5066639;28;19920;-72
2022/11/08 05:30:50;;;;;;;;;;;11.60;99.90;;;;;;5066390;28;19931;-72
2022/11/08 05:33:16;;;;;;;;;;;11.50;99.90;;;;;;5067322;28;20367;-72
2022/11/08 05:35:41;;;;;;;;;;;11.70;99.90;;;;;;5066703;28;19917;-72
2022/11/08 05:38:07;;;;;;;;;;;12.00;99.90;;;;;;5067221;28;19917;-72
2022/11/08 05:40:33;;;;;;;;;;;12.00;99.90;;;;;;5064575;28;19928;-73
2022/11/08 05:42:58;;;;;;;;;;;12.20;99.90;;;;;;5066466;28;19920;-73
2022/11/08 05:45:24;;;;;;;;;;;12.10;99.90;;;;;;5061567;28;20018;-74
2022/11/08 05:47:49;;;;;;;;;;;12.00;99.90;;;;;;5066217;28;20003;-75
2022/11/08 05:50:15;;;;;;;;;;;12.30;99.90;;;;;;5065299;28;19920;-74
2022/11/08 05:52:40;;;;;;;;;;;12.20;99.90;;;;;;5062669;28;19981;-75
2022/11/08 05:55:06;;;;;;;;;;;12.20;99.90;;;;;;5067553;28;19938;-75
2022/11/08 05:57:31;;;;;;;;;;;12.20;99.90;;;;;;5066943;28;19938;-75
2022/11/08 05:59:57;;;;;;;;;;;12.20;99.90;;;;;;5065946;28;19923;-76
2022/11/08 06:02:22;;;;;;;;;;;12.30;99.90;;;;;;5066103;28;20509;-75
2022/11/08 06:04:48;;;;;;;;;;;12.40;99.90;;;;;;5060290;28;20492;-75
2022/11/08 06:07:14;;;;;;;;;;;12.50;99.90;;;;;;5065273;28;20592;-74
2022/11/08 06:09:39;;;;;;;;;;;12.40;99.90;;;;;;5058921;28;19972;-74
2022/11/08 06:12:05;;;;;;;;;;;12.50;99.90;;;;;;5055240;28;19936;-75
2022/11/08 06:14:31;;;;;;;;;;;12.50;99.90;;;;;;5059656;28;20270;-75
2022/11/08 06:16:56;;;;;;;;;;;12.50;99.90;;;;;;5060820;28;19963;-75
2022/11/08 06:19:22;;;;;;;;;;;12.40;99.90;;;;;;5060869;28;19922;-76
2022/11/08 06:21:47;;;;;;;;;;;12.60;99.90;;;;;;5059044;28;19917;-75
2022/11/08 06:24:16;;;;;;;;;;;12.60;99.90;;;;;;5060458;28;19962;-76
2022/11/08 06:26:42;;;;;;;;;;;12.60;99.90;;;;;;5067511;28;19917;-76
2022/11/08 06:29:08;;;;;;;;;;;12.60;99.90;;;;;;5069770;28;19926;-75
2022/11/08 06:31:34;;;;;;;;;;;12.70;99.90;;;;;;5062901;28;19923;-75
2022/11/08 06:34:00;;;;;;;;;;;12.60;99.90;;;;;;5062361;28;19916;-74
2022/11/08 06:36:25;;;;;;;;;;;12.70;99.90;;;;;;5070027;28;19917;-73
2022/11/08 06:38:54;;;;;;;;;;;12.60;99.90;;;;;;5073502;28;19916;-74
2022/11/08 06:41:20;;;;;;;;;;;12.60;99.90;;;;;;5069759;28;19948;-74
2022/11/08 06:43:46;;;;;;;;;;;12.80;99.90;;;;;;5061321;28;19938;-74
2022/11/08 06:46:11;;;;;;;;;;;12.90;99.90;;;;;;5066004;28;20003;-74
2022/11/08 06:48:37;;;;;;;;;;;12.70;99.90;;;;;;5066936;28;19927;-75
2022/11/08 06:51:03;;;;;;;;;;;12.60;99.90;;;;;;5072760;28;19970;-74
2022/11/08 06:53:28;;;;;;;;;;;12.60;99.90;;;;;;5070018;28;19920;-75
2022/11/08 06:55:54;;;;;;;;;;;12.90;99.90;;;;;;5068293;28;19916;-74
2022/11/08 06:58:19;;;;;;;;;;;12.70;99.90;;;;;;5060277;28;19913;-73
2022/11/08 07:00:45;;;;;;;;;;;12.80;99.90;;;;;;5066965;28;20476;-73
2022/11/08 07:03:11;;;;;;;;;;;12.90;99.90;;;;;;5066291;28;19940;-73
2022/11/08 07:05:37;;;;;;;;;;;13.20;99.90;;;;;;5068110;28;19921;-73
2022/11/08 07:08:03;;;;;;;;;;;14.00;99.90;;;;;;5060503;28;19916;-74
2022/11/08 07:10:29;;;;;;;;;;;14.30;99.90;;;;;;5057180;28;20357;-73
2022/11/08 07:12:58;;;;;;;;;;;14.30;99.90;;;;;;5056700;28;19912;-74
2022/11/08 07:15:23;;;;;;;;;;;14.40;99.90;;;;;;5061740;28;19916;-74
2022/11/08 07:17:49;;;;;;;;;;;14.70;99.90;;;;;;5071273;28;20520;-74
2022/11/08 07:20:14;;;;;;;;;;;15.00;99.90;;;;;;5060835;28;19916;-73
2022/11/08 07:22:40;;;;;;;;;;;15.30;99.80;;;;;;5076405;28;20492;-74
2022/11/08 07:25:05;;;;;;;;;;;15.40;99.40;;;;;;5069947;28;20340;-73
2022/11/08 07:27:31;;;;;;;;;;;15.50;99.20;;;;;;5068941;28;20296;-74
2022/11/08 07:29:56;;;;;;;;;;;15.60;98.80;;;;;;5063217;28;19920;-74
2022/11/08 07:32:22;;;;;;;;;;;15.70;98.20;;;;;;5061105;28;20457;-74
2022/11/08 07:34:47;;;;;;;;;;;15.50;98.70;;;;;;5061543;28;20731;-73
2022/11/08 07:37:13;;;;;;;;;;;15.40;99.00;;;;;;5060689;28;20407;-73
2022/11/08 07:39:38;;;;;;;;;;;16.00;98.60;;;;;;5055255;28;20565;-73
2022/11/08 07:42:04;;;;;;;;;;;16.20;98.00;;;;;;5070160;28;19951;-73
2022/11/08 07:44:29;;;;;;;;;;;16.30;97.20;;;;;;5064621;28;19927;-74
2022/11/08 07:46:55;;;;;;;;;;;16.40;97.10;;;;;;5057947;28;20005;-77
2022/11/08 07:49:20;;;;;;;;;;;16.10;97.80;;;;;;5063984;28;19912;-74
2022/11/08 07:51:46;;;;;;;;;;;16.70;97.40;;;;;;5066042;28;19912;-74
2022/11/08 07:54:11;;;;;;;;;;;17.00;96.30;;;;;;5069223;28;20686;-75
2022/11/08 07:56:37;;;;;;;;;;;17.20;95.90;;;;;;5070358;28;19919;-75
2022/11/08 07:59:02;;;;;;;;;;;17.40;95.40;;;;;;5052150;28;19913;-74
2022/11/08 08:01:28;;;;;;;;;;;17.40;95.70;;;;;;5054544;28;20451;-75
2022/11/08 08:03:54;;;;;;;;;;;17.70;95.30;;;;;;5053208;28;20562;-75
2022/11/08 08:06:19;;;;;;;;;;;17.40;95.10;;;;;;5065521;28;19920;-74
2022/11/08 08:08:45;;;;;;;;;;;17.90;94.60;;;;;;5060608;28;19924;-74
2022/11/08 08:11:11;;;;;;;;;;;18.50;93.80;;;;;;5060415;28;19920;-74
2022/11/08 08:13:36;;;;;;;;;;;18.20;94.00;;;;;;5060785;28;20054;-75
2022/11/08 08:16:02;;;;;;;;;;;18.60;94.20;;;;;;5068106;28;19979;-74
2022/11/08 08:18:28;;;;;;;;;;;19.00;93.30;;;;;;5065153;28;19988;-74
2022/11/08 08:20:54;;;;;;;;;;;18.40;93.20;;;;;;5065630;28;19912;-74
2022/11/08 08:23:19;;;;;;;;;;;18.40;93.90;;;;;;5057086;28;20016;-75
2022/11/08 08:25:45;;;;;;;;;;;18.40;93.70;;;;;;5058752;28;19974;-75
2022/11/08 08:28:10;;;;;;;;;;;18.30;93.50;;;;;;5064565;28;19912;-75
2022/11/08 08:30:36;;;;;;;;;;;18.20;94.40;;;;;;5080593;28;19917;-75
2022/11/08 08:33:10;;;;;;;;;;;18.20;94.00;;;;;;5064467;28;20007;-75
2022/11/08 08:35:36;;;;;;;;;;;17.20;95.00;;;;;;5067621;28;20397;-75
2022/11/08 08:38:02;;;;;;;;;;;17.50;95.00;;;;;;5068912;28;19912;-74
2022/11/08 08:40:28;;;;;;;;;;;17.50;95.10;;;;;;5062433;28;20028;-74
2022/11/08 08:42:53;;;;;;;;;;;17.10;95.70;;;;;;5067973;28;19913;-74
2022/11/08 08:45:19;;;;;;;;;;;17.20;95.90;;;;;;5068396;28;19986;-74
2022/11/08 08:47:49;;;;;;;;;;;17.10;96.70;;;;;;5066206;28;20488;-75
2022/11/08 08:50:15;;;;;;;;;;;17.10;96.20;;;;;;5061741;28;19938;-74
2022/11/08 08:52:40;;;;;;;;;;;17.10;96.20;;;;;;5067840;28;20604;-74
2022/11/08 08:55:06;;;;;;;;;;;17.30;96.30;;;;;;5068590;28;19913;-75
2022/11/08 08:57:32;;;;;;;;;;;17.20;96.70;;;;;;5068466;28;19912;-75
2022/11/08 08:59:58;;;;;;;;;;;17.70;96.90;;;;;;5066490;28;19923;-74
2022/11/08 09:02:23;;;;;;;;;;;17.70;96.60;;;;;;5068399;28;20526;-75
2022/11/08 09:04:49;;;;;;;;;;;17.70;96.70;;;;;;5068338;28;19982;-75
2022/11/08 09:07:15;;;;;;;;;;;18.00;96.00;;;;;;5067191;28;19912;-75
2022/11/08 09:09:40;;;;;;;;;;;17.60;96.50;;;;;;5068560;28;19920;-75
2022/11/08 09:12:06;;;;;;;;;;;17.40;96.60;;;;;;5068363;28;19913;-75
2022/11/08 09:14:31;;;;;;;;;;;17.60;96.90;;;;;;5068033;28;20023;-75
2022/11/08 09:16:57;;;;;;;;;;;17.70;96.10;;;;;;5066774;28;19924;-74
2022/11/08 09:19:22;;;;;;;;;;;17.90;96.10;;;;;;5068405;28;19919;-74
2022/11/08 09:21:48;;;;;;;;;;;17.80;96.10;;;;;;5068322;28;19912;-73
2022/11/08 09:24:13;;;;;;;;;;;18.60;94.80;;;;;;5068374;28;20775;-74
2022/11/08 09:26:39;;;;;;;;;;;18.80;94.50;;;;;;5068225;28;20765;-74
2022/11/08 09:29:04;;;;;;;;;;;19.00;94.40;;;;;;5068055;28;20375;-74
2022/11/08 09:31:30;;;;;;;;;;;18.70;95.20;;;;;;5068004;28;19912;-75
2022/11/08 09:33:55;;;;;;;;;;;18.80;94.70;;;;;;5068285;28;20388;-75
2022/11/08 09:36:21;;;;;;;;;;;18.90;94.10;;;;;;5063480;28;20364;-75
2022/11/08 09:38:46;;;;;;;;;;;18.60;94.20;;;;;;5068294;28;20299;-75
2022/11/08 09:41:12;;;;;;;;;;;18.60;95.60;;;;;;5066577;28;20307;-75
2022/11/08 09:43:43;;;;;;;;;;;18.70;95.20;;;;;;5067992;28;20665;-75
2022/11/08 09:46:10;;;;;;;;;;;18.70;95.20;;;;;;5066550;28;20336;-75
2022/11/08 09:48:37;;;;;;;;;;;18.50;94.90;;;;;;5068367;28;19920;-74
2022/11/08 09:51:09;;;;;;;;;;;18.40;95.30;;;;;;5067884;28;19917;-74
2022/11/08 09:53:37;;;;;;;;;;;18.90;94.70;;;;;;5061578;28;19913;-75
2022/11/08 09:56:10;;;;;;;;;;;19.60;93.80;;;;;;5067984;28;20654;-75
2022/11/08 09:58:39;;;;;;;;;;;19.50;93.20;;;;;;5067991;28;19920;-75
2022/11/08 10:01:14;;;;;;;;;;;19.30;94.10;;;;;;5067462;28;19923;-75
2022/11/08 10:03:43;;;;;;;;;;;19.60;94.20;;;;;;5067582;28;19949;-74
2022/11/08 10:06:21;;;;;;;;;;;19.30;93.80;;;;;;5067131;28;20462;-74
2022/11/08 10:09:13;;;;;;;;;;;19.20;93.70;;;;;;5066321;28;19912;-75
2022/11/08 10:11:53;;;;;;;;;;;18.90;93.60;;;;;;5067256;28;19928;-75
2022/11/08 10:14:29;;;;;;;;;;;18.80;93.90;;;;;;5067147;28;19917;-74
2022/11/08 10:17:00;;;;;;;;;;;19.00;93.30;;;;;;5066084;28;19913;-75
2022/11/08 10:19:42;;;;;;;;;;;19.20;94.30;;;;;;5064290;28;19986;-75
2022/11/08 10:22:16;;;;;;;;;;;19.20;93.70;;;;;;5068033;28;19912;-74
2022/11/08 10:25:01;;;;;;;;;;;19.40;94.40;;;;;;5067657;28;19965;-75
2022/11/08 10:27:37;;;;;;;;;;;19.50;93.50;;;;;;5061770;28;19948;-75
2022/11/08 10:30:22;;;;;;;;;;;19.50;93.30;;;;;;5060274;28;19923;-74
2022/11/08 10:32:50;;;;;;;;;;;19.40;93.40;;;;;;5064148;28;19912;-75
2022/11/08 10:35:36;;;;;;;;;;;19.30;92.70;;;;;;5067224;28;19960;-75
2022/11/08 10:38:02;;;;;;;;;;;19.20;93.40;;;;;;5076596;28;19913;-74
2022/11/08 10:40:34;;;;;;;;;;;19.40;92.50;;;;;;5060625;28;19912;-75
2022/11/08 10:43:11;;;;;;;;;;;19.30;92.70;;;;;;5065706;28;19912;-75
2022/11/08 10:45:36;;;;;;;;;;;19.20;93.00;;;;;;5067183;28;19966;-74
2022/11/08 10:48:02;;;;;;;;;;;19.30;92.80;;;;;;5066966;28;19956;-75
2022/11/08 10:50:39;;;;;;;;;;;19.50;92.20;;;;;;5065198;28;19947;-75
2022/11/08 10:53:05;;;;;;;;;;;19.30;92.10;;;;;;5066440;28;19919;-73
2022/11/08 10:55:39;;;;;;;;;;;19.20;93.70;;;;;;5067076;28;19917;-75
2022/11/08 10:58:24;;;;;;;;;;;19.50;92.20;;;;;;5067900;28;19919;-75
2022/11/08 11:00:58;;;;;;;;;;;19.60;92.10;;;;;;5066834;28;19913;-75
2022/11/08 11:03:27;;;;;;;;;;;19.60;93.20;;;;;;5071143;28;19917;-75
2022/11/08 11:06:16;;;;;;;;;;;19.50;92.10;;;;;;5068911;28;20307;-75
2022/11/08 11:08:49;;;;;;;;;;;19.30;92.70;;;;;;5071288;28;19920;-74
2022/11/08 11:11:23;;;;;;;;;;;19.30;92.50;;;;;;5067794;28;19920;-75
2022/11/08 11:14:10;;;;;;;;;;;19.00;92.80;;;;;;5063201;28;20441;-74
2022/11/08 11:16:35;;;;;;;;;;;18.80;93.90;;;;;;5094062;28;19920;-74
2022/11/08 11:19:02;;;;;;;;;;;18.80;94.20;;;;;;5068055;28;20307;-75
2022/11/08 11:21:34;;;;;;;;;;;18.80;94.20;;;;;;5070268;28;19912;-74
2022/11/08 11:24:16;;;;;;;;;;;18.60;94.10;;;;;;5070879;28;19912;-75
2022/11/08 11:26:46;;;;;;;;;;;18.70;94.60;;;;;;5062835;28;19912;-75
2022/11/08 11:29:15;;;;;;;;;;;18.70;94.10;;;;;;5069722;28;19971;-74
2022/11/08 11:31:42;;;;;;;;;;;18.90;93.50;;;;;;5069632;28;19920;-74
2022/11/08 11:34:16;;;;;;;;;;;18.90;93.70;;;;;;5069920;28;19951;-74
2022/11/08 11:36:56;;;;;;;;;;;19.00;93.40;;;;;;5081806;28;19913;-74
2022/11/08 11:39:43;;;;;;;;;;;19.20;93.10;;;;;;5067804;28;21518;-75
2022/11/08 11:42:11;;;;;;;;;;;19.20;93.40;;;;;;5068231;28;19991;-75
2022/11/08 11:44:49;;;;;;;;;;;19.00;93.60;;;;;;5068129;28;19966;-75
2022/11/08 11:47:18;;;;;;;;;;;19.10;94.00;;;;;;5070070;28;20023;-73
2022/11/08 11:49:44;;;;;;;;;;;19.10;94.60;;;;;;5068098;28;19921;-75
2022/11/08 11:52:17;;;;;;;;;;;19.10;94.60;;;;;;5069544;28;19919;-74
2022/11/08 11:54:45;;;;;;;;;;;19.00;95.00;;;;;;5070237;28;19959;-75
2022/11/08 11:57:13;;;;;;;;;;;19.00;95.10;;;;;;5069728;28;20307;-75
2022/11/08 11:59:55;;;;;;;;;;;19.00;94.90;;;;;;5069798;28;19952;-74
2022/11/08 12:02:23;;;;;;;;;;;19.00;94.60;;;;;;5070020;28;19916;-75
2022/11/08 12:04:57;;;;;;;;;;;19.00;94.40;;;;;;5069698;28;19916;-75
2022/11/08 12:07:27;;;;;;;;;;;18.90;95.20;;;;;;5064194;28;19912;-75
2022/11/08 12:10:11;;;;;;;;;;;18.80;95.60;;;;;;5069242;28;19928;-75
2022/11/08 12:12:59;;;;;;;;;;;18.80;95.80;;;;;;5069017;28;20451;-75
2022/11/08 12:15:28;;;;;;;;;;;18.90;95.50;;;;;;5060537;28;20401;-75
2022/11/08 12:17:54;;;;;;;;;;;19.10;95.30;;;;;;5067930;28;19912;-75
2022/11/08 12:20:23;;;;;;;;;;;19.20;94.70;;;;;;5068722;28;19912;-75
2022/11/08 12:22:52;;;;;;;;;;;19.10;94.80;;;;;;5069339;28;19922;-75
2022/11/08 12:25:22;;;;;;;;;;;19.10;95.30;;;;;;5069266;28;19944;-75
2022/11/08 12:27:47;;;;;;;;;;;19.00;94.70;;;;;;5068905;28;19912;-75
2022/11/08 12:30:16;;;;;;;;;;;18.90;95.50;;;;;;5063968;28;20415;-75
2022/11/08 12:32:56;;;;;;;;;;;18.90;94.90;;;;;;5069292;28;19912;-75
2022/11/08 12:35:22;;;;;;;;;;;18.90;94.90;;;;;;5069196;28;19920;-75
2022/11/08 12:38:03;;;;;;;;;;;18.90;94.70;;;;;;5067761;28;19935;-75
2022/11/08 12:40:28;;;;;;;;;;;18.90;94.60;;;;;;5069418;28;19924;-75
2022/11/08 12:43:02;;;;;;;;;;;19.00;94.40;;;;;;5059434;28;19917;-74
2022/11/08 12:45:38;;;;;;;;;;;18.90;94.60;;;;;;5067509;28;19913;-75
2022/11/08 12:48:12;;;;;;;;;;;19.00;94.50;;;;;;5068036;28;19917;-75
2022/11/08 12:50:37;;;;;;;;;;;19.00;94.30;;;;;;5068356;28;19926;-75
2022/11/08 12:53:22;;;;;;;;;;;19.00;94.20;;;;;;5067930;28;19913;-75
2022/11/08 12:55:49;;;;;;;;;;;19.00;94.60;;;;;;5068647;28;19912;-74
2022/11/08 12:58:32;;;;;;;;;;;19.10;95.30;;;;;;5068162;28;19912;-74
2022/11/08 13:01:00;;;;;;;;;;;19.00;94.60;;;;;;5063420;28;19982;-75
2022/11/08 13:03:26;;;;;;;;;;;18.90;95.00;;;;;;5067263;28;19917;-75
2022/11/08 13:06:01;;;;;;;;;;;18.80;95.80;;;;;;5068250;28;19924;-75
2022/11/08 13:08:33;;;;;;;;;;;18.80;95.50;;;;;;5067075;28;19912;-75
2022/11/08 13:11:06;;;;;;;;;;;19.00;95.00;;;;;;5068289;28;19921;-74
2022/11/08 13:13:38;;;;;;;;;;;18.90;94.90;;;;;;5068599;28;19920;-75
2022/11/08 13:16:06;;;;;;;;;;;18.90;95.60;;;;;;5066136;28;19976;-75
2022/11/08 13:18:33;;;;;;;;;;;18.90;95.90;;;;;;5061990;28;20299;-75
2022/11/08 13:20:58;;;;;;;;;;;18.90;95.90;;;;;;5064547;28;19981;-75
2022/11/08 13:23:26;;;;;;;;;;;18.90;95.50;;;;;;5068796;28;20008;-75
2022/11/08 13:25:52;;;;;;;;;;;18.80;95.70;;;;;;5068035;28;19919;-74
2022/11/08 13:28:34;;;;;;;;;;;19.00;95.70;;;;;;5068379;28;19971;-75
2022/11/08 13:31:02;;;;;;;;;;;19.10;95.30;;;;;;5066231;28;19969;-74
2022/11/08 13:33:29;;;;;;;;;;;19.10;95.10;;;;;;5060096;28;19919;-74
2022/11/08 13:36:05;;;;;;;;;;;19.20;95.20;;;;;;5067651;28;19920;-75
2022/11/08 13:38:34;;;;;;;;;;;19.00;95.60;;;;;;5058255;28;19962;-75
2022/11/08 13:41:02;;;;;;;;;;;19.00;95.80;;;;;;5067918;28;19913;-75
2022/11/08 13:43:32;;;;;;;;;;;19.00;95.60;;;;;;5068143;28;19916;-75
2022/11/08 13:46:16;;;;;;;;;;;19.00;95.70;;;;;;5064690;28;19974;-75
2022/11/08 13:48:42;;;;;;;;;;;18.90;95.90;;;;;;5062044;28;19908;-75
2022/11/08 13:51:24;;;;;;;;;;;18.90;95.90;;;;;;5068027;28;19916;-75
2022/11/08 13:53:53;;;;;;;;;;;18.90;95.80;;;;;;5067700;28;19912;-74
2022/11/08 13:56:23;;;;;;;;;;;18.90;95.70;;;;;;5067863;28;20517;-75
2022/11/08 13:58:49;;;;;;;;;;;19.00;95.60;;;;;;5068123;28;19912;-73
2022/11/08 14:01:17;;;;;;;;;;;19.00;95.40;;;;;;5067784;28;19913;-75
2022/11/08 14:03:53;;;;;;;;;;;19.00;95.40;;;;;;5065303;28;19966;-75
2022/11/08 14:06:25;;;;;;;;;;;18.90;95.30;;;;;;5060331;28;20359;-75
2022/11/08 14:08:56;;;;;;;;;;;18.90;95.20;;;;;;5060382;28;19919;-74
2022/11/08 14:11:34;;;;;;;;;;;18.80;95.50;;;;;;5067276;28;20402;-75
2022/11/08 14:14:08;;;;;;;;;;;18.80;95.50;;;;;;5067874;28;19917;-74
2022/11/08 14:16:41;;;;;;;;;;;18.80;95.50;;;;;;5065423;28;20032;-75
2022/11/08 14:19:18;;;;;;;;;;;18.70;95.50;;;;;;5065714;28;19912;-75
2022/11/08 14:21:51;;;;;;;;;;;18.60;95.80;;;;;;5067464;28;19958;-75
2022/11/08 14:24:19;;;;;;;;;;;18.60;95.50;;;;;;5067383;28;19916;-75
2022/11/08 14:26:45;;;;;;;;;;;18.60;95.40;;;;;;5067651;28;19913;-74
2022/11/08 14:29:14;;;;;;;;;;;18.50;95.40;;;;;;5065728;28;19980;-74
2022/11/08 14:31:40;;;;;;;;;;;18.50;95.50;;;;;;5067138;28;19912;-74
2022/11/08 14:34:25;;;;;;;;;;;18.50;96.10;;;;;;5072103;28;19938;-75
2022/11/08 14:36:51;;;;;;;;;;;18.40;95.80;;;;;;5063019;28;19912;-74
2022/11/08 14:39:17;;;;;;;;;;;18.40;95.70;;;;;;5070964;28;19921;-75
2022/11/08 14:41:44;;;;;;;;;;;18.40;95.80;;;;;;5071144;28;20039;-75
2022/11/08 14:44:12;;;;;;;;;;;18.40;95.90;;;;;;5070937;28;19913;-75
2022/11/08 14:46:38;;;;;;;;;;;18.30;96.70;;;;;;5071338;28;20158;-75